CET,Max TemperatureF,Mean TemperatureF,Min TemperatureF,Max Dew PointF,MeanDew PointF,Min DewpointF,Max Humidity, Mean Humidity, Min Humidity, Max Sea Level PressureIn, Mean Sea Level PressureIn, Min Sea Level PressureIn, Max VisibilityMiles, Mean VisibilityMiles, Min VisibilityMiles, Max Wind SpeedMPH, Mean Wind SpeedMPH, Max Gust SpeedMPH,PrecipitationIn, CloudCover, Events, WindDirDegrees
2013-1-1,53,42,30,46,39,30,100,87,58,30.15,30.09,29.77,5,3,1,5,2,,0.00,1,Rain,353
2013-1-2,53,48,44,48,45,41,100,82,67,30.21,30.10,30.06,5,4,3,15,7,,0.00,,,111
2013-1-3,59,47,35,46,40,32,100,78,54,30.51,30.47,30.42,5,4,2,2,1,,0.00,,,-1
2013-1-4,60,46,32,46,37,25,100,76,58,30.48,30.39,30.33,5,3,1,5,2,,0.00,2,Fog,20
2013-1-5,53,42,30,46,41,30,100,89,76,30.21,30.15,30.09,6,4,0,9,3,,0.00,1,Fog,12
2013-1-6,57,44,30,46,39,27,100,84,67,30.24,30.17,30.09,5,2,0,5,1,,0.00,,Fog,340
2013-1-7,59,47,35,46,41,32,100,86,59,30.21,30.14,30.09,5,4,2,6,3,,0.00,,Fog,350
2013-1-8,51,42,33,46,38,30,100,86,66,30.30,30.26,30.21,3,2,1,6,3,,0.00,4,,358
2013-1-9,53,46,39,46,42,34,93,77,58,30.21,30.16,30.12,6,4,2,4,1,,0.00,5,,-1
2013-1-10,50,48,46,48,46,43,100,90,76,29.98,29.90,29.83,3,2,1,7,2,,0.00,2,Rain,120
2013-1-11,55,48,42,48,44,32,100,91,44,29.83,29.76,29.68,6,3,0,15,4,,0.00,4,Fog-Rain,334
2013-1-12,55,42,30,46,39,30,100,85,66,30.01,30.00,29.98,6,4,0,7,2,,0.00,3,Fog,163
2013-1-13,55,50,46,52,48,45,100,89,77,29.92,29.83,29.74,6,6,3,17,9,26,0.00,3,Rain-Thunderstorm,156
2013-1-14,55,52,48,50,44,34,88,74,58,29.89,29.79,29.74,6,6,4,13,8,,0.00,3,Rain,208
2013-1-15,53,45,37,43,40,36,100,82,54,29.89,29.77,29.65,6,5,0,9,5,,0.00,3,Fog-Rain,180
2013-1-16,42,40,37,43,39,37,100,94,81,29.50,29.46,29.42,6,4,1,16,8,,0.00,3,Rain-Thunderstorm,162
2013-1-17,44,40,35,43,37,30,93,84,70,29.42,29.34,29.27,6,5,2,18,4,,0.00,3,Rain,27
2013-1-18,46,42,37,34,33,32,81,70,62,29.62,29.50,29.42,6,6,6,22,12,,0.00,1,,343
2013-1-19,50,40,32,45,38,30,100,89,81,29.65,29.57,29.50,6,5,4,18,7,29,0.00,4,Rain,101
2013-1-20,59,57,55,57,54,50,100,91,77,29.50,29.46,29.44,6,4,3,17,10,,0.00,2,Rain,145
2013-1-21,53,47,41,50,42,34,100,82,62,29.53,29.44,29.39,6,6,4,18,4,,0.00,4,,67
2013-1-22,51,42,33,43,39,34,100,77,50,29.77,29.66,29.59,6,5,0,16,5,28,0.00,2,Fog-Rain,288
2013-1-23,48,46,44,43,39,32,93,76,61,29.77,29.71,29.59,6,6,2,34,12,,0.00,3,Rain-Thunderstorm,117
2013-1-24,51,46,41,43,41,39,100,82,67,29.47,29.43,29.39,6,5,3,13,5,,0.00,2,,4
2013-1-25,51,43,35,41,35,27,100,70,53,29.62,29.52,29.47,5,5,5,20,7,,0.00,,,5
2013-1-26,50,42,35,32,28,25,75,57,40,29.83,29.72,29.65,,,,13,7,,0.00,,,8
2013-1-27,53,42,30,37,33,28,100,75,51,29.98,29.97,29.95,5,5,4,6,2,,0.00,,,311
2013-1-28,46,44,42,46,43,39,100,91,81,29.98,29.87,29.80,5,3,2,17,10,,0.00,2,Rain,97
2013-1-29,59,46,33,45,38,27,100,75,51,30.24,30.20,30.18,6,6,5,5,1,,0.00,,Fog,280
2013-1-30,60,46,32,43,37,27,87,69,48,30.24,30.18,30.15,5,3,0,7,1,,0.00,1,Fog,260
2013-1-31,66,52,39,52,46,34,94,74,49,30.18,30.16,30.15,5,4,4,8,3,,0.00,,Fog,279